Mid Labrador Coast - Hopedale and south: Past 24 Hour Conditions

 

St. Anthony Airport

06:30 AM NDT 18 September 2014
This table is a summary of hourly weather conditions for the past 24 hours.
Date / Time
(NDT)
Wind(knots) Conditions Visibility(km) Pressure(kPa) Air tempC) Relative humidity(%) Dew pointC)
18 September 2014
6:30 N 5 Cloudy 16 101.4 4 81 1
5:30 NNW 5 Mostly Cloudy 16 101.4 4 83 2
4:30 N 5 Mostly Cloudy 16 101.4 5 85 3
3:30 N 7 Cloudy 16 101.4 7 83 4
2:30 NW 4 Cloudy 16 101.3 9 92 7
1:30 W 5 Cloudy 16 101.2 8 91 6
0:30 SSW 5 Cloudy 16 101.2 8 90 7
17 September 2014
23:30 WSW 4 Partly Cloudy 16 101.1 7 93 6
22:30 SW 5 Clear 16 101.0 9 89 7
21:30 SW 9 Mainly Clear 16 101.0 11 83 8
20:30 WSW 13 gust 18 Cloudy 16 100.9 13 70 7
19:30 SSW 15 gust 21 Cloudy 16 100.8 13 66 7
18:30 SW 20 gust 26 Partly Cloudy 16 100.8 14 71 9
17:30 SW 21 gust 28 Partly Cloudy 16 100.7 15 67 9
16:30 SW 24 gust 32 Sunny 16 100.6 17 53 7
15:30 SW 23 gust 30 Mainly Sunny 16 100.6 17 49 6
14:30 SW 20 gust 27 Sunny 16 100.7 17 49 6
13:30 SW 15 gust 22 Mainly Sunny 16 100.7 16 60 8
12:30 SW 19 Sunny 16 100.7 15 65 8
11:30 SW 12 gust 17 Light Rain 16 100.8 14 78 10
10:30 SSW 12 gust 18 Partly Cloudy 16 100.8 13 76 9
9:30 S 7 Light Rain 16 100.8 11 90 9
8:30 S 9 Mostly Cloudy 16 100.8 9 92 8
7:30 SSE 6 Mainly Sunny 16 100.8 8 94 7
6:30 S 7 Cloudy 16 100.8 9 93 8
 
Map of Atlantic - Newfoundland marine weather areas Southwestern Grand Banks - 44138 Banquereau - 44139 Tail of the Bank - 44140 Nickerson Bank - 44251 Northeast Burgeo Bank - 44255 Blanc-Sablon Airport Cap Whittle Chevery Natashquan Airport Heath Point Miscou Island Grand Étang Ingonish Beach North Mountain St.Paul Island J.A. Douglas McCurdy Sydney Airport Charlottetown Airport East Point North Cape Argentia Bonavista Burgeo Cape Race Corner Brook Daniel's Harbour Englee Ferolle Point La Scie Port aux Basques Rocky Harbour Sagona Island St. Anthony Airport St. John's Int'l Airport St. Lawrence Stephenville Airport Twillingate Winterland Wreckhouse Cartwright Airport Mary's Harbour Grates Cove Pool's Island Marticot Island Long Pond Îles de la Madeleine Airport
Legend: buoyBuoy land stationLand Station